Terminal Aerodrome Forecast
Issued by NWS

Home | Current Version | Previous Version | Text Only | Print | Product List | Glossary On
Versions: 1 2 3 4 5 6 7 8 9 10 11 12 13 14 15 16 17 18 19 20 21 22 23 24 25 26 27 28
000
FTUS41 KCTP 220559 RRB
TAFLNS
TAF
KLNS 220559Z 2206/2306 10003KT P6SM BKN045 OVC070
     FM221100 00000KT 4SM BR OVC050
     FM221900 12004KT P6SM SCT070 BKN200=

USA.gov is the U.S. government's official web portal to all federal, state and local government web resources and services.